createdAt,value
2023-04-11T00:03:02.447Z,11.94
2023-04-11T00:08:06.320Z,11.87
2023-04-11T00:13:23.001Z,12.00
2023-04-11T00:18:26.694Z,11.96
2023-04-11T00:23:23.327Z,11.93
2023-04-11T00:28:19.867Z,11.88
2023-04-11T00:33:16.551Z,11.84
2023-04-11T00:38:27.318Z,11.82
2023-04-11T00:43:41.162Z,11.79
2023-04-11T00:48:57.222Z,11.53
2023-04-11T00:53:57.409Z,11.59
2023-04-11T00:59:00.226Z,11.65
2023-04-11T01:04:08.668Z,11.47
2023-04-11T01:09:05.620Z,11.52
2023-04-11T01:14:11.802Z,11.59
2023-04-11T01:19:09.246Z,11.46
2023-04-11T01:24:06.430Z,11.58
2023-04-11T01:29:03.292Z,11.45
2023-04-11T01:34:07.587Z,11.43
2023-04-11T01:39:06.902Z,11.34
2023-04-11T01:44:08.983Z,11.41
2023-04-11T01:49:06.666Z,11.55
2023-04-11T01:54:10.237Z,11.47
2023-04-11T01:59:16.473Z,11.53
2023-04-11T02:04:55.062Z,11.37
2023-04-11T02:10:04.492Z,11.38
2023-04-11T02:15:01.030Z,11.21
2023-04-11T02:19:59.792Z,11.16
2023-04-11T02:25:13.492Z,11.14
2023-04-11T02:30:10.162Z,11.20
2023-04-11T02:35:09.752Z,11.18
2023-04-11T02:40:08.074Z,10.94
2023-04-11T02:45:05.011Z,11.01
2023-04-11T02:50:03.824Z,10.99
2023-04-11T02:55:00.631Z,10.91
2023-04-11T02:59:57.031Z,10.98
2023-04-11T03:05:02.696Z,10.79
2023-04-11T03:10:04.077Z,10.78
2023-04-11T03:15:03.410Z,10.82
2023-04-11T03:20:07.188Z,10.90
2023-04-11T03:25:09.276Z,10.83
2023-04-11T03:30:11.837Z,10.62
2023-04-11T03:48:11.817Z,10.59
2023-04-11T03:53:09.207Z,10.56
2023-04-11T03:58:05.784Z,10.46
2023-04-11T04:03:02.537Z,10.42
2023-04-11T04:19:32.464Z,10.11
2023-04-11T04:24:29.541Z,10.18
2023-04-11T04:29:34.008Z,10.23
2023-04-11T04:40:55.102Z,10.15
2023-04-11T04:45:51.621Z,10.12
2023-04-11T05:08:43.969Z,10.08
2023-04-11T05:13:42.114Z,10.02
2023-04-11T06:02:30.307Z,10.11
2023-04-11T06:07:27.491Z,10.27
2023-04-11T06:12:24.119Z,10.39
2023-04-11T14:38:05.789Z,10.12
2023-04-11T14:43:02.609Z,10.17
2023-04-11T14:47:58.975Z,10.23
2023-04-11T14:52:55.734Z,10.28
2023-04-11T14:57:53.545Z,10.35
2023-04-11T15:08:43.170Z,10.57
2023-04-11T15:31:25.379Z,10.34
2023-04-11T15:36:23.191Z,10.22
2023-04-11T15:54:23.790Z,10.30
2023-04-11T16:05:56.520Z,10.36
2023-04-11T16:10:53.577Z,10.53
2023-04-11T16:15:54.027Z,10.33
2023-04-11T16:20:50.829Z,10.34
2023-04-11T16:25:47.385Z,10.31
2023-04-11T16:30:43.968Z,10.20
2023-04-11T16:36:10.519Z,10.06
2023-04-11T16:41:34.670Z,10.04
2023-04-11T16:46:47.802Z,10.03
2023-04-11T17:15:27.367Z,9.98
2023-04-11T17:25:59.157Z,9.97
2023-04-11T17:31:06.381Z,10.08
2023-04-11T20:07:56.403Z,8.25
2023-04-11T20:13:04.822Z,8.16
2023-04-11T20:19:08.931Z,8.15
2023-04-11T22:50:04.335Z,6.70
2023-04-11T23:19:06.436Z,6.36
2023-04-11T23:24:34.716Z,6.47
2023-04-11T23:36:28.779Z,6.37
2023-04-11T23:49:01.635Z,6.37
